CL05 weather

First Interstate Bank Operations Center Heliport
Fremont, California, United States

Public forecast

Using degrees Fahrenheit for public forecast. Weather courtesy of forecast.io.

Closest aviation weather report (METAR) to First Interstate Bank Operations Center Heliport

Closest report is Palo Alto Airport of Santa Clara County, 8.3 nm (15.3 km) SW. Retrieved 2019/10/16 16:47 UTC (1 hour ago):

KPAO 161647Z 00000KT 10SM FEW010 SCT060 BKN120 13/09 A3004

Closest aviation forecast (TAF) to First Interstate Bank Operations Center Heliport

Closest forecast is Norman Y. Mineta San Jose International Airport, 11.4 nm (21.1 km) SSE. Retrieved 2019/10/16 18:30 UTC (0 seconds ago):

TAF KSJC 161728Z 1618/1718 VRB03KT P6SM FEW010 BKN200 FM161900 32009KT P6SM BKN200 FM170400 23005KT P6SM FEW040 BKN200 FM170800 15006KT P6SM VCSH SCT025 BKN050 FM171300 VRB06KT P6SM SCT025 BKN050 TEMPO 1713/1716 BKN025